sensor_id;sensor_type;location;lat;lon;timestamp;temperature;humidity
33269;DHT22;19640;50.944;5.260;2023-04-15T00:01:57;7.20;99.90
33269;DHT22;19640;50.944;5.260;2023-04-15T00:04:24;7.30;99.90
33269;DHT22;19640;50.944;5.260;2023-04-15T00:06:52;7.50;99.90
33269;DHT22;19640;50.944;5.260;2023-04-15T00:09:19;7.80;99.90
33269;DHT22;19640;50.944;5.260;2023-04-15T00:11:45;7.90;99.90
33269;DHT22;19640;50.944;5.260;2023-04-15T00:14:11;8.00;99.90
33269;DHT22;19640;50.944;5.260;2023-04-15T00:16:37;8.10;99.90
33269;DHT22;19640;50.944;5.260;2023-04-15T00:19:03;8.20;99.90
33269;DHT22;19640;50.944;5.260;2023-04-15T00:21:29;8.20;99.90
33269;DHT22;19640;50.944;5.260;2023-04-15T00:23:55;8.10;99.90
33269;DHT22;19640;50.944;5.260;2023-04-15T00:26:21;8.20;99.90
33269;DHT22;19640;50.944;5.260;2023-04-15T00:28:46;8.40;99.90
33269;DHT22;19640;50.944;5.260;2023-04-15T00:31:12;8.40;99.90
33269;DHT22;19640;50.944;5.260;2023-04-15T00:33:38;8.20;99.90
33269;DHT22;19640;50.944;5.260;2023-04-15T00:36:05;8.30;99.90
33269;DHT22;19640;50.944;5.260;2023-04-15T00:38:31;8.60;99.90
33269;DHT22;19640;50.944;5.260;2023-04-15T00:40:58;8.70;99.90
33269;DHT22;19640;50.944;5.260;2023-04-15T00:43:23;8.60;99.90
33269;DHT22;19640;50.944;5.260;2023-04-15T00:45:51;8.40;99.90
33269;DHT22;19640;50.944;5.260;2023-04-15T00:48:18;8.50;99.90
33269;DHT22;19640;50.944;5.260;2023-04-15T00:50:44;8.70;99.90
33269;DHT22;19640;50.944;5.260;2023-04-15T00:53:10;8.70;99.90
33269;DHT22;19640;50.944;5.260;2023-04-15T00:55:36;9.00;99.90
33269;DHT22;19640;50.944;5.260;2023-04-15T00:58:02;9.10;99.90
33269;DHT22;19640;50.944;5.260;2023-04-15T01:00:28;9.00;99.90
33269;DHT22;19640;50.944;5.260;2023-04-15T01:02:54;9.00;99.90
33269;DHT22;19640;50.944;5.260;2023-04-15T01:05:20;9.00;99.90
33269;DHT22;19640;50.944;5.260;2023-04-15T01:07:47;8.90;99.90
33269;DHT22;19640;50.944;5.260;2023-04-15T01:10:13;8.90;99.90
33269;DHT22;19640;50.944;5.260;2023-04-15T01:12:38;8.80;99.90
33269;DHT22;19640;50.944;5.260;2023-04-15T01:15:05;8.70;99.90
33269;DHT22;19640;50.944;5.260;2023-04-15T01:17:31;8.60;99.90
33269;DHT22;19640;50.944;5.260;2023-04-15T01:19:57;8.70;99.90
33269;DHT22;19640;50.944;5.260;2023-04-15T01:22:23;8.80;99.90
33269;DHT22;19640;50.944;5.260;2023-04-15T01:25:12;8.90;99.90
33269;DHT22;19640;50.944;5.260;2023-04-15T01:27:40;9.10;99.90
33269;DHT22;19640;50.944;5.260;2023-04-15T01:30:07;9.10;99.90
33269;DHT22;19640;50.944;5.260;2023-04-15T01:32:33;9.20;99.90
33269;DHT22;19640;50.944;5.260;2023-04-15T01:34:59;9.00;99.90
33269;DHT22;19640;50.944;5.260;2023-04-15T01:37:25;8.80;99.90
33269;DHT22;19640;50.944;5.260;2023-04-15T01:39:50;8.70;99.90
33269;DHT22;19640;50.944;5.260;2023-04-15T01:42:16;8.70;99.90
33269;DHT22;19640;50.944;5.260;2023-04-15T01:44:42;8.90;99.90
33269;DHT22;19640;50.944;5.260;2023-04-15T01:47:07;9.00;99.90
33269;DHT22;19640;50.944;5.260;2023-04-15T01:49:33;9.10;99.90
33269;DHT22;19640;50.944;5.260;2023-04-15T01:51:59;9.00;99.90
33269;DHT22;19640;50.944;5.260;2023-04-15T01:54:25;9.20;99.90
33269;DHT22;19640;50.944;5.260;2023-04-15T01:56:52;9.30;99.90
33269;DHT22;19640;50.944;5.260;2023-04-15T01:59:17;9.30;99.90
33269;DHT22;19640;50.944;5.260;2023-04-15T02:01:43;9.20;99.90
33269;DHT22;19640;50.944;5.260;2023-04-15T02:04:10;9.20;99.90
33269;DHT22;19640;50.944;5.260;2023-04-15T02:06:43;9.00;99.90
33269;DHT22;19640;50.944;5.260;2023-04-15T02:09:09;8.80;99.90
33269;DHT22;19640;50.944;5.260;2023-04-15T02:11:35;8.90;99.90
33269;DHT22;19640;50.944;5.260;2023-04-15T02:14:02;9.10;99.90
33269;DHT22;19640;50.944;5.260;2023-04-15T02:16:30;9.10;99.90
33269;DHT22;19640;50.944;5.260;2023-04-15T02:18:56;9.10;99.90
33269;DHT22;19640;50.944;5.260;2023-04-15T02:21:22;9.00;99.90
33269;DHT22;19640;50.944;5.260;2023-04-15T02:23:47;8.90;99.90
33269;DHT22;19640;50.944;5.260;2023-04-15T02:26:13;8.80;99.90
33269;DHT22;19640;50.944;5.260;2023-04-15T02:28:39;8.60;99.90
33269;DHT22;19640;50.944;5.260;2023-04-15T02:31:08;8.70;99.90
33269;DHT22;19640;50.944;5.260;2023-04-15T02:33:34;8.70;99.90
33269;DHT22;19640;50.944;5.260;2023-04-15T02:36:00;8.60;99.90
33269;DHT22;19640;50.944;5.260;2023-04-15T02:38:26;8.60;99.90
33269;DHT22;19640;50.944;5.260;2023-04-15T02:40:51;8.50;99.90
33269;DHT22;19640;50.944;5.260;2023-04-15T02:43:17;8.60;99.90
33269;DHT22;19640;50.944;5.260;2023-04-15T02:45:44;8.70;99.90
33269;DHT22;19640;50.944;5.260;2023-04-15T02:48:11;8.90;99.90
33269;DHT22;19640;50.944;5.260;2023-04-15T02:50:37;8.90;99.90
33269;DHT22;19640;50.944;5.260;2023-04-15T02:53:06;9.00;99.90
33269;DHT22;19640;50.944;5.260;2023-04-15T02:55:32;9.00;99.90
33269;DHT22;19640;50.944;5.260;2023-04-15T02:57:57;8.50;99.90
33269;DHT22;19640;50.944;5.260;2023-04-15T03:00:25;8.30;99.90
33269;DHT22;19640;50.944;5.260;2023-04-15T03:02:51;8.20;99.90
33269;DHT22;19640;50.944;5.260;2023-04-15T03:05:21;8.10;99.90
33269;DHT22;19640;50.944;5.260;2023-04-15T03:07:50;8.20;99.90
33269;DHT22;19640;50.944;5.260;2023-04-15T03:10:16;8.30;99.90
33269;DHT22;19640;50.944;5.260;2023-04-15T03:12:41;8.50;99.90
33269;DHT22;19640;50.944;5.260;2023-04-15T03:15:08;8.60;99.90
33269;DHT22;19640;50.944;5.260;2023-04-15T03:17:34;8.60;99.90
33269;DHT22;19640;50.944;5.260;2023-04-15T03:20:04;8.40;99.90
33269;DHT22;19640;50.944;5.260;2023-04-15T03:22:30;8.20;99.90
33269;DHT22;19640;50.944;5.260;2023-04-15T03:24:56;8.10;99.90
33269;DHT22;19640;50.944;5.260;2023-04-15T03:27:22;8.30;99.90
33269;DHT22;19640;50.944;5.260;2023-04-15T03:29:48;8.50;99.90
33269;DHT22;19640;50.944;5.260;2023-04-15T03:32:14;8.30;99.90
33269;DHT22;19640;50.944;5.260;2023-04-15T03:34:40;8.10;99.90
33269;DHT22;19640;50.944;5.260;2023-04-15T03:37:06;7.90;99.90
33269;DHT22;19640;50.944;5.260;2023-04-15T03:39:33;7.80;99.90
33269;DHT22;19640;50.944;5.260;2023-04-15T03:41:58;8.00;99.90
33269;DHT22;19640;50.944;5.260;2023-04-15T03:44:27;8.20;99.90
33269;DHT22;19640;50.944;5.260;2023-04-15T03:46:53;8.30;99.90
33269;DHT22;19640;50.944;5.260;2023-04-15T03:49:19;8.40;99.90
33269;DHT22;19640;50.944;5.260;2023-04-15T03:51:47;8.50;99.90
33269;DHT22;19640;50.944;5.260;2023-04-15T03:54:12;8.80;99.90
33269;DHT22;19640;50.944;5.260;2023-04-15T03:56:39;8.80;99.90
33269;DHT22;19640;50.944;5.260;2023-04-15T03:59:05;8.80;99.90
33269;DHT22;19640;50.944;5.260;2023-04-15T04:01:31;8.80;99.90
33269;DHT22;19640;50.944;5.260;2023-04-15T04:03:56;8.70;99.90
33269;DHT22;19640;50.944;5.260;2023-04-15T04:06:22;8.60;99.90
33269;DHT22;19640;50.944;5.260;2023-04-15T04:08:48;8.40;99.90
33269;DHT22;19640;50.944;5.260;2023-04-15T04:11:13;8.30;99.90
33269;DHT22;19640;50.944;5.260;2023-04-15T04:13:39;8.30;99.90
33269;DHT22;19640;50.944;5.260;2023-04-15T04:16:05;8.50;99.90
33269;DHT22;19640;50.944;5.260;2023-04-15T04:18:32;8.50;99.90
33269;DHT22;19640;50.944;5.260;2023-04-15T04:20:57;8.70;99.90
33269;DHT22;19640;50.944;5.260;2023-04-15T04:23:23;8.80;99.90
33269;DHT22;19640;50.944;5.260;2023-04-15T04:25:48;8.90;99.90
33269;DHT22;19640;50.944;5.260;2023-04-15T04:28:14;8.80;99.90
33269;DHT22;19640;50.944;5.260;2023-04-15T04:30:40;8.90;99.90
33269;DHT22;19640;50.944;5.260;2023-04-15T04:33:06;8.90;99.90
33269;DHT22;19640;50.944;5.260;2023-04-15T04:35:32;9.00;99.90
33269;DHT22;19640;50.944;5.260;2023-04-15T04:37:59;8.90;99.90
33269;DHT22;19640;50.944;5.260;2023-04-15T04:40:25;8.90;99.90
33269;DHT22;19640;50.944;5.260;2023-04-15T04:42:52;8.90;99.90
33269;DHT22;19640;50.944;5.260;2023-04-15T04:45:18;8.80;99.90
33269;DHT22;19640;50.944;5.260;2023-04-15T04:47:44;8.60;99.90
33269;DHT22;19640;50.944;5.260;2023-04-15T04:50:11;8.70;99.90
33269;DHT22;19640;50.944;5.260;2023-04-15T04:52:36;8.80;99.90
33269;DHT22;19640;50.944;5.260;2023-04-15T04:55:02;8.80;99.90
33269;DHT22;19640;50.944;5.260;2023-04-15T04:57:28;8.80;99.90
33269;DHT22;19640;50.944;5.260;2023-04-15T04:59:53;8.80;99.90
33269;DHT22;19640;50.944;5.260;2023-04-15T05:02:19;8.60;99.90
33269;DHT22;19640;50.944;5.260;2023-04-15T05:04:45;8.30;99.90
33269;DHT22;19640;50.944;5.260;2023-04-15T05:07:10;8.10;99.90
33269;DHT22;19640;50.944;5.260;2023-04-15T05:09:36;8.30;99.90
33269;DHT22;19640;50.944;5.260;2023-04-15T05:12:05;8.60;99.90
33269;DHT22;19640;50.944;5.260;2023-04-15T05:14:30;8.60;99.90
33269;DHT22;19640;50.944;5.260;2023-04-15T05:16:56;8.60;99.90
33269;DHT22;19640;50.944;5.260;2023-04-15T05:19:22;8.50;99.90
33269;DHT22;19640;50.944;5.260;2023-04-15T05:21:48;8.50;99.90
33269;DHT22;19640;50.944;5.260;2023-04-15T05:24:13;8.80;99.90
33269;DHT22;19640;50.944;5.260;2023-04-15T05:26:39;8.80;99.90
33269;DHT22;19640;50.944;5.260;2023-04-15T05:29:05;8.70;99.90
33269;DHT22;19640;50.944;5.260;2023-04-15T05:31:31;8.80;99.90
33269;DHT22;19640;50.944;5.260;2023-04-15T05:33:57;8.80;99.90
33269;DHT22;19640;50.944;5.260;2023-04-15T05:36:22;8.80;99.90
33269;DHT22;19640;50.944;5.260;2023-04-15T05:38:48;8.80;99.90
33269;DHT22;19640;50.944;5.260;2023-04-15T05:41:14;8.70;99.90
33269;DHT22;19640;50.944;5.260;2023-04-15T05:43:40;8.60;99.90
33269;DHT22;19640;50.944;5.260;2023-04-15T05:46:06;8.50;99.90
33269;DHT22;19640;50.944;5.260;2023-04-15T05:48:33;8.60;99.90
33269;DHT22;19640;50.944;5.260;2023-04-15T05:50:59;8.70;99.90
33269;DHT22;19640;50.944;5.260;2023-04-15T05:53:25;8.90;99.90
33269;DHT22;19640;50.944;5.260;2023-04-15T05:55:51;9.00;99.90
33269;DHT22;19640;50.944;5.260;2023-04-15T05:58:16;9.30;99.90
33269;DHT22;19640;50.944;5.260;2023-04-15T06:00:43;9.30;99.90
33269;DHT22;19640;50.944;5.260;2023-04-15T06:03:10;9.40;99.90
33269;DHT22;19640;50.944;5.260;2023-04-15T06:05:36;9.10;99.90
33269;DHT22;19640;50.944;5.260;2023-04-15T06:08:02;8.90;99.90
33269;DHT22;19640;50.944;5.260;2023-04-15T06:10:28;8.90;99.90
33269;DHT22;19640;50.944;5.260;2023-04-15T06:12:53;9.10;99.90
33269;DHT22;19640;50.944;5.260;2023-04-15T06:15:19;9.30;99.90
33269;DHT22;19640;50.944;5.260;2023-04-15T06:17:44;9.50;99.90
33269;DHT22;19640;50.944;5.260;2023-04-15T06:20:11;9.60;99.90
33269;DHT22;19640;50.944;5.260;2023-04-15T06:22:37;9.40;99.90
33269;DHT22;19640;50.944;5.260;2023-04-15T06:25:06;9.40;99.90
33269;DHT22;19640;50.944;5.260;2023-04-15T06:27:35;9.30;99.90
33269;DHT22;19640;50.944;5.260;2023-04-15T06:30:01;9.00;99.90
33269;DHT22;19640;50.944;5.260;2023-04-15T06:32:26;9.20;99.90
33269;DHT22;19640;50.944;5.260;2023-04-15T06:34:52;9.00;99.90
33269;DHT22;19640;50.944;5.260;2023-04-15T06:37:18;8.90;99.90
33269;DHT22;19640;50.944;5.260;2023-04-15T06:39:43;8.80;99.90
33269;DHT22;19640;50.944;5.260;2023-04-15T06:42:10;8.80;99.90
33269;DHT22;19640;50.944;5.260;2023-04-15T06:44:36;9.00;99.90
33269;DHT22;19640;50.944;5.260;2023-04-15T06:47:02;9.20;99.90
33269;DHT22;19640;50.944;5.260;2023-04-15T06:49:28;9.60;99.90
33269;DHT22;19640;50.944;5.260;2023-04-15T06:51:54;9.80;99.90
33269;DHT22;19640;50.944;5.260;2023-04-15T06:54:19;10.20;99.90
33269;DHT22;19640;50.944;5.260;2023-04-15T06:56:45;10.60;99.90
33269;DHT22;19640;50.944;5.260;2023-04-15T06:59:12;10.90;99.90
33269;DHT22;19640;50.944;5.260;2023-04-15T07:01:40;11.40;99.90
33269;DHT22;19640;50.944;5.260;2023-04-15T07:04:06;11.70;99.90
33269;DHT22;19640;50.944;5.260;2023-04-15T07:06:31;11.50;99.90
33269;DHT22;19640;50.944;5.260;2023-04-15T07:08:58;11.30;99.90
33269;DHT22;19640;50.944;5.260;2023-04-15T07:11:25;11.40;99.90
33269;DHT22;19640;50.944;5.260;2023-04-15T07:13:51;11.80;99.90
33269;DHT22;19640;50.944;5.260;2023-04-15T07:16:17;12.50;99.90
33269;DHT22;19640;50.944;5.260;2023-04-15T07:18:42;13.00;99.90
33269;DHT22;19640;50.944;5.260;2023-04-15T07:21:09;13.50;99.90
33269;DHT22;19640;50.944;5.260;2023-04-15T07:23:34;14.40;99.90
33269;DHT22;19640;50.944;5.260;2023-04-15T07:26:00;14.60;99.90
33269;DHT22;19640;50.944;5.260;2023-04-15T07:28:26;14.90;99.90
33269;DHT22;19640;50.944;5.260;2023-04-15T07:30:52;14.80;99.90
33269;DHT22;19640;50.944;5.260;2023-04-15T07:33:18;14.90;99.20
33269;DHT22;19640;50.944;5.260;2023-04-15T07:35:43;15.00;98.50
33269;DHT22;19640;50.944;5.260;2023-04-15T07:38:09;15.00;98.50
33269;DHT22;19640;50.944;5.260;2023-04-15T07:40:38;15.50;98.80
33269;DHT22;19640;50.944;5.260;2023-04-15T07:43:04;15.60;97.20
33269;DHT22;19640;50.944;5.260;2023-04-15T07:45:33;15.90;97.40
33269;DHT22;19640;50.944;5.260;2023-04-15T07:48:00;16.20;97.00
33269;DHT22;19640;50.944;5.260;2023-04-15T07:50:27;17.00;95.80
33269;DHT22;19640;50.944;5.260;2023-04-15T07:52:52;16.80;95.50
33269;DHT22;19640;50.944;5.260;2023-04-15T07:55:18;17.20;95.10
33269;DHT22;19640;50.944;5.260;2023-04-15T07:57:48;17.70;94.70
33269;DHT22;19640;50.944;5.260;2023-04-15T08:00:14;18.90;93.20
33269;DHT22;19640;50.944;5.260;2023-04-15T08:02:41;17.50;92.90
33269;DHT22;19640;50.944;5.260;2023-04-15T08:05:08;16.30;94.80
33269;DHT22;19640;50.944;5.260;2023-04-15T08:07:38;15.00;97.10
33269;DHT22;19640;50.944;5.260;2023-04-15T08:10:05;14.80;97.50
33269;DHT22;19640;50.944;5.260;2023-04-15T08:12:30;14.50;98.10
33269;DHT22;19640;50.944;5.260;2023-04-15T08:14:56;14.40;99.60
33269;DHT22;19640;50.944;5.260;2023-04-15T08:17:22;14.20;99.60
33269;DHT22;19640;50.944;5.260;2023-04-15T08:19:48;13.80;99.90
33269;DHT22;19640;50.944;5.260;2023-04-15T08:22:14;13.50;99.90
33269;DHT22;19640;50.944;5.260;2023-04-15T08:24:40;13.30;99.90
33269;DHT22;19640;50.944;5.260;2023-04-15T08:27:06;13.30;99.90
33269;DHT22;19640;50.944;5.260;2023-04-15T08:29:32;13.00;99.90
33269;DHT22;19640;50.944;5.260;2023-04-15T08:31:59;12.80;99.90
33269;DHT22;19640;50.944;5.260;2023-04-15T08:34:25;12.80;99.90
33269;DHT22;19640;50.944;5.260;2023-04-15T08:36:50;12.90;99.90
33269;DHT22;19640;50.944;5.260;2023-04-15T08:39:16;12.80;99.90
33269;DHT22;19640;50.944;5.260;2023-04-15T08:41:47;12.80;99.90
33269;DHT22;19640;50.944;5.260;2023-04-15T08:44:17;12.80;99.90
33269;DHT22;19640;50.944;5.260;2023-04-15T08:46:43;13.00;99.90
33269;DHT22;19640;50.944;5.260;2023-04-15T08:49:10;13.00;99.90
33269;DHT22;19640;50.944;5.260;2023-04-15T08:51:39;13.10;99.90
33269;DHT22;19640;50.944;5.260;2023-04-15T08:54:06;13.20;99.90
33269;DHT22;19640;50.944;5.260;2023-04-15T08:56:33;13.30;99.90
33269;DHT22;19640;50.944;5.260;2023-04-15T08:58:59;13.30;99.90
33269;DHT22;19640;50.944;5.260;2023-04-15T09:01:25;13.00;99.90
33269;DHT22;19640;50.944;5.260;2023-04-15T09:03:51;13.00;99.90
33269;DHT22;19640;50.944;5.260;2023-04-15T09:06:20;12.90;99.90
33269;DHT22;19640;50.944;5.260;2023-04-15T09:08:46;13.10;99.90
33269;DHT22;19640;50.944;5.260;2023-04-15T09:11:12;13.20;99.90
33269;DHT22;19640;50.944;5.260;2023-04-15T09:13:38;13.30;99.90
33269;DHT22;19640;50.944;5.260;2023-04-15T09:16:05;13.10;99.90
33269;DHT22;19640;50.944;5.260;2023-04-15T09:18:32;13.30;99.90
33269;DHT22;19640;50.944;5.260;2023-04-15T09:21:13;13.40;99.90
33269;DHT22;19640;50.944;5.260;2023-04-15T09:23:52;13.60;99.90
33269;DHT22;19640;50.944;5.260;2023-04-15T09:26:18;13.80;99.90
33269;DHT22;19640;50.944;5.260;2023-04-15T09:28:44;13.80;99.90
33269;DHT22;19640;50.944;5.260;2023-04-15T09:31:10;13.70;99.90
33269;DHT22;19640;50.944;5.260;2023-04-15T09:33:35;13.80;99.90
33269;DHT22;19640;50.944;5.260;2023-04-15T09:36:18;13.90;99.90
33269;DHT22;19640;50.944;5.260;2023-04-15T09:38:57;13.90;99.90
33269;DHT22;19640;50.944;5.260;2023-04-15T09:41:24;13.90;99.90
33269;DHT22;19640;50.944;5.260;2023-04-15T09:43:50;14.10;99.90
33269;DHT22;19640;50.944;5.260;2023-04-15T09:46:16;14.30;99.90
33269;DHT22;19640;50.944;5.260;2023-04-15T09:48:42;14.40;99.90
33269;DHT22;19640;50.944;5.260;2023-04-15T09:51:08;14.20;99.40
33269;DHT22;19640;50.944;5.260;2023-04-15T09:53:35;14.20;99.60
33269;DHT22;19640;50.944;5.260;2023-04-15T09:56:02;14.10;99.90
33269;DHT22;19640;50.944;5.260;2023-04-15T09:58:33;14.00;99.90
33269;DHT22;19640;50.944;5.260;2023-04-15T10:01:01;14.00;99.90
33269;DHT22;19640;50.944;5.260;2023-04-15T10:03:32;13.90;99.90
33269;DHT22;19640;50.944;5.260;2023-04-15T10:05:59;13.90;98.90
33269;DHT22;19640;50.944;5.260;2023-04-15T10:08:27;13.80;98.10
33269;DHT22;19640;50.944;5.260;2023-04-15T10:10:53;13.80;99.60
33269;DHT22;19640;50.944;5.260;2023-04-15T10:13:21;13.90;99.90
33269;DHT22;19640;50.944;5.260;2023-04-15T10:15:55;14.30;98.50
33269;DHT22;19640;50.944;5.260;2023-04-15T10:18:24;14.60;96.40
33269;DHT22;19640;50.944;5.260;2023-04-15T10:20:50;14.70;96.80
33269;DHT22;19640;50.944;5.260;2023-04-15T10:23:17;14.80;96.50
33269;DHT22;19640;50.944;5.260;2023-04-15T10:25:44;14.90;97.40
33269;DHT22;19640;50.944;5.260;2023-04-15T10:28:10;14.80;97.80
33269;DHT22;19640;50.944;5.260;2023-04-15T10:30:36;15.00;98.00
33269;DHT22;19640;50.944;5.260;2023-04-15T10:33:04;15.00;99.10
33269;DHT22;19640;50.944;5.260;2023-04-15T10:35:31;14.70;96.40
33269;DHT22;19640;50.944;5.260;2023-04-15T10:37:58;14.30;94.40
33269;DHT22;19640;50.944;5.260;2023-04-15T10:40:31;14.40;91.70
33269;DHT22;19640;50.944;5.260;2023-04-15T10:43:01;14.30;91.70
33269;DHT22;19640;50.944;5.260;2023-04-15T10:45:34;14.60;93.80
33269;DHT22;19640;50.944;5.260;2023-04-15T10:48:06;14.30;92.40
33269;DHT22;19640;50.944;5.260;2023-04-15T10:50:33;14.40;93.80
33269;DHT22;19640;50.944;5.260;2023-04-15T10:53:02;14.30;94.20
33269;DHT22;19640;50.944;5.260;2023-04-15T10:55:31;14.60;95.20
33269;DHT22;19640;50.944;5.260;2023-04-15T10:57:58;14.60;95.70
33269;DHT22;19640;50.944;5.260;2023-04-15T11:00:28;14.40;96.50
33269;DHT22;19640;50.944;5.260;2023-04-15T11:02:59;14.30;96.50
33269;DHT22;19640;50.944;5.260;2023-04-15T11:08:04;14.40;96.70
33269;DHT22;19640;50.944;5.260;2023-04-15T11:13:03;14.40;95.10
33269;DHT22;19640;50.944;5.260;2023-04-15T11:15:33;14.60;96.10
33269;DHT22;19640;50.944;5.260;2023-04-15T11:18:15;14.70;94.20
33269;DHT22;19640;50.944;5.260;2023-04-15T11:20:42;14.10;96.30
33269;DHT22;19640;50.944;5.260;2023-04-15T11:23:12;14.20;97.00
33269;DHT22;19640;50.944;5.260;2023-04-15T11:25:38;14.00;95.30
33269;DHT22;19640;50.944;5.260;2023-04-15T11:28:04;14.00;96.50
33269;DHT22;19640;50.944;5.260;2023-04-15T11:30:32;14.20;96.80
33269;DHT22;19640;50.944;5.260;2023-04-15T11:33:01;14.20;95.70
33269;DHT22;19640;50.944;5.260;2023-04-15T11:35:28;14.20;97.00
33269;DHT22;19640;50.944;5.260;2023-04-15T11:37:54;14.30;96.80
33269;DHT22;19640;50.944;5.260;2023-04-15T11:40:29;14.60;99.00
33269;DHT22;19640;50.944;5.260;2023-04-15T11:43:09;14.70;96.10
33269;DHT22;19640;50.944;5.260;2023-04-15T11:45:47;14.80;94.40
33269;DHT22;19640;50.944;5.260;2023-04-15T11:48:13;14.80;94.70
33269;DHT22;19640;50.944;5.260;2023-04-15T11:50:39;14.60;96.20
33269;DHT22;19640;50.944;5.260;2023-04-15T11:53:07;14.50;95.50
33269;DHT22;19640;50.944;5.260;2023-04-15T12:00:38;14.90;97.20
33269;DHT22;19640;50.944;5.260;2023-04-15T12:06:14;15.00;94.10
33269;DHT22;19640;50.944;5.260;2023-04-15T12:09:03;14.90;95.00
33269;DHT22;19640;50.944;5.260;2023-04-15T12:16:33;15.60;97.50
33269;DHT22;19640;50.944;5.260;2023-04-15T12:18:59;15.50;95.80
33269;DHT22;19640;50.944;5.260;2023-04-15T12:21:27;15.60;95.70
33269;DHT22;19640;50.944;5.260;2023-04-15T12:23:57;15.70;95.50
33269;DHT22;19640;50.944;5.260;2023-04-15T12:26:32;15.60;94.90
33269;DHT22;19640;50.944;5.260;2023-04-15T12:29:05;15.60;94.00
33269;DHT22;19640;50.944;5.260;2023-04-15T12:31:33;15.80;93.50
33269;DHT22;19640;50.944;5.260;2023-04-15T12:33:59;15.80;92.50
33269;DHT22;19640;50.944;5.260;2023-04-15T12:36:26;15.80;93.90
33269;DHT22;19640;50.944;5.260;2023-04-15T12:38:52;15.70;95.50
33269;DHT22;19640;50.944;5.260;2023-04-15T12:41:18;15.70;92.40
33269;DHT22;19640;50.944;5.260;2023-04-15T12:43:44;15.80;91.00
33269;DHT22;19640;50.944;5.260;2023-04-15T12:46:12;15.90;91.50
33269;DHT22;19640;50.944;5.260;2023-04-15T12:48:37;15.90;90.60
33269;DHT22;19640;50.944;5.260;2023-04-15T12:51:03;15.90;89.70
33269;DHT22;19640;50.944;5.260;2023-04-15T12:53:28;15.90;90.70
33269;DHT22;19640;50.944;5.260;2023-04-15T12:55:54;15.30;92.30
33269;DHT22;19640;50.944;5.260;2023-04-15T12:58:20;15.30;92.20
33269;DHT22;19640;50.944;5.260;2023-04-15T13:00:46;15.60;89.70
33269;DHT22;19640;50.944;5.260;2023-04-15T13:03:13;15.70;91.40
33269;DHT22;19640;50.944;5.260;2023-04-15T13:05:39;15.60;90.00
33269;DHT22;19640;50.944;5.260;2023-04-15T13:08:05;15.70;92.30
33269;DHT22;19640;50.944;5.260;2023-04-15T13:10:31;15.60;90.50
33269;DHT22;19640;50.944;5.260;2023-04-15T13:12:57;15.70;92.70
33269;DHT22;19640;50.944;5.260;2023-04-15T13:15:23;15.90;90.80
33269;DHT22;19640;50.944;5.260;2023-04-15T13:17:50;16.20;92.40
33269;DHT22;19640;50.944;5.260;2023-04-15T13:20:16;16.30;91.10
33269;DHT22;19640;50.944;5.260;2023-04-15T13:22:42;16.50;90.60
33269;DHT22;19640;50.944;5.260;2023-04-15T13:25:08;16.50;92.60
33269;DHT22;19640;50.944;5.260;2023-04-15T13:27:34;16.50;92.20
33269;DHT22;19640;50.944;5.260;2023-04-15T13:30:00;16.60;91.90
33269;DHT22;19640;50.944;5.260;2023-04-15T13:32:26;16.50;92.30
33269;DHT22;19640;50.944;5.260;2023-04-15T13:34:51;16.30;92.60
33269;DHT22;19640;50.944;5.260;2023-04-15T13:37:17;16.10;91.90
33269;DHT22;19640;50.944;5.260;2023-04-15T13:39:43;16.00;93.10
33269;DHT22;19640;50.944;5.260;2023-04-15T13:42:08;16.20;92.30
33269;DHT22;19640;50.944;5.260;2023-04-15T13:44:34;16.00;92.00
33269;DHT22;19640;50.944;5.260;2023-04-15T13:47:00;16.00;91.30
33269;DHT22;19640;50.944;5.260;2023-04-15T13:49:26;15.90;92.10
33269;DHT22;19640;50.944;5.260;2023-04-15T13:51:52;15.90;92.70
33269;DHT22;19640;50.944;5.260;2023-04-15T13:54:18;15.80;94.60
33269;DHT22;19640;50.944;5.260;2023-04-15T13:56:43;16.00;94.20
33269;DHT22;19640;50.944;5.260;2023-04-15T13:59:09;16.10;94.20
33269;DHT22;19640;50.944;5.260;2023-04-15T14:01:35;16.20;93.50
33269;DHT22;19640;50.944;5.260;2023-04-15T14:04:00;16.20;93.70
33269;DHT22;19640;50.944;5.260;2023-04-15T14:06:27;16.20;92.90
33269;DHT22;19640;50.944;5.260;2023-04-15T14:08:53;16.30;93.80
33269;DHT22;19640;50.944;5.260;2023-04-15T14:11:19;16.40;95.60
33269;DHT22;19640;50.944;5.260;2023-04-15T14:13:45;16.30;94.30
33269;DHT22;19640;50.944;5.260;2023-04-15T14:16:10;16.30;92.80
33269;DHT22;19640;50.944;5.260;2023-04-15T14:18:36;16.20;94.30
33269;DHT22;19640;50.944;5.260;2023-04-15T14:21:04;16.30;93.70
33269;DHT22;19640;50.944;5.260;2023-04-15T14:23:30;16.30;94.40
33269;DHT22;19640;50.944;5.260;2023-04-15T14:25:56;16.20;92.10
33269;DHT22;19640;50.944;5.260;2023-04-15T14:28:23;16.10;92.60
33269;DHT22;19640;50.944;5.260;2023-04-15T14:30:48;16.10;93.30
33269;DHT22;19640;50.944;5.260;2023-04-15T14:33:14;16.20;94.10
33269;DHT22;19640;50.944;5.260;2023-04-15T14:35:40;15.90;94.00
33269;DHT22;19640;50.944;5.260;2023-04-15T14:38:06;15.70;94.00
33269;DHT22;19640;50.944;5.260;2023-04-15T14:40:35;15.70;94.40
33269;DHT22;19640;50.944;5.260;2023-04-15T14:43:01;16.00;95.00
33269;DHT22;19640;50.944;5.260;2023-04-15T14:45:26;16.30;94.20
33269;DHT22;19640;50.944;5.260;2023-04-15T14:47:52;16.40;94.70
33269;DHT22;19640;50.944;5.260;2023-04-15T14:50:18;16.50;95.00
33269;DHT22;19640;50.944;5.260;2023-04-15T14:52:44;16.80;94.10
33269;DHT22;19640;50.944;5.260;2023-04-15T14:55:11;17.00;94.40
33269;DHT22;19640;50.944;5.260;2023-04-15T14:57:38;17.20;93.90
33269;DHT22;19640;50.944;5.260;2023-04-15T15:00:04;16.90;94.00
33269;DHT22;19640;50.944;5.260;2023-04-15T15:02:32;16.70;94.50
33269;DHT22;19640;50.944;5.260;2023-04-15T15:04:59;16.60;93.90
33269;DHT22;19640;50.944;5.260;2023-04-15T15:07:25;16.30;93.80
33269;DHT22;19640;50.944;5.260;2023-04-15T15:09:52;16.10;94.20
33269;DHT22;19640;50.944;5.260;2023-04-15T15:12:18;15.90;94.10
33269;DHT22;19640;50.944;5.260;2023-04-15T15:14:43;15.90;94.50
33269;DHT22;19640;50.944;5.260;2023-04-15T15:17:09;15.90;94.90
33269;DHT22;19640;50.944;5.260;2023-04-15T15:19:35;15.90;94.50
33269;DHT22;19640;50.944;5.260;2023-04-15T15:22:02;15.90;94.20
33269;DHT22;19640;50.944;5.260;2023-04-15T15:24:28;15.80;93.30
33269;DHT22;19640;50.944;5.260;2023-04-15T15:26:54;15.80;93.10
33269;DHT22;19640;50.944;5.260;2023-04-15T15:29:19;15.70;94.30
33269;DHT22;19640;50.944;5.260;2023-04-15T15:31:45;15.80;94.10
33269;DHT22;19640;50.944;5.260;2023-04-15T15:34:10;15.90;94.20
33269;DHT22;19640;50.944;5.260;2023-04-15T15:36:36;16.00;94.80
33269;DHT22;19640;50.944;5.260;2023-04-15T15:39:02;16.00;95.90
33269;DHT22;19640;50.944;5.260;2023-04-15T15:41:28;16.00;96.20
33269;DHT22;19640;50.944;5.260;2023-04-15T15:43:53;16.20;95.70
33269;DHT22;19640;50.944;5.260;2023-04-15T15:46:19;16.10;95.90
33269;DHT22;19640;50.944;5.260;2023-04-15T15:48:45;16.10;96.00
33269;DHT22;19640;50.944;5.260;2023-04-15T15:51:10;15.90;95.20
33269;DHT22;19640;50.944;5.260;2023-04-15T15:53:37;15.50;95.40